sensor_id;sensor_type;location;lat;lon;timestamp;P1;durP1;ratioP1;P2;durP2;ratioP2
11191;SDS011;5652;48.406;10.820;2024-02-21T00:01:52;8.80;;;4.70;;
11191;SDS011;5652;48.406;10.820;2024-02-21T00:04:19;8.40;;;4.70;;
11191;SDS011;5652;48.406;10.820;2024-02-21T00:06:46;12.35;;;5.32;;
11191;SDS011;5652;48.406;10.820;2024-02-21T00:09:13;10.50;;;4.90;;
11191;SDS011;5652;48.406;10.820;2024-02-21T00:11:40;9.30;;;5.15;;
11191;SDS011;5652;48.406;10.820;2024-02-21T00:14:09;9.13;;;4.80;;
11191;SDS011;5652;48.406;10.820;2024-02-21T00:16:36;8.13;;;4.97;;
11191;SDS011;5652;48.406;10.820;2024-02-21T00:19:03;9.65;;;4.82;;
11191;SDS011;5652;48.406;10.820;2024-02-21T00:21:30;10.67;;;5.40;;
11191;SDS011;5652;48.406;10.820;2024-02-21T00:23:57;12.27;;;5.47;;
11191;SDS011;5652;48.406;10.820;2024-02-21T00:26:24;11.43;;;5.20;;
11191;SDS011;5652;48.406;10.820;2024-02-21T00:28:52;10.60;;;5.40;;
11191;SDS011;5652;48.406;10.820;2024-02-21T00:31:20;10.10;;;5.32;;
11191;SDS011;5652;48.406;10.820;2024-02-21T00:33:47;10.50;;;5.35;;
11191;SDS011;5652;48.406;10.820;2024-02-21T00:36:15;9.60;;;5.10;;
11191;SDS011;5652;48.406;10.820;2024-02-21T00:38:42;11.07;;;5.50;;
11191;SDS011;5652;48.406;10.820;2024-02-21T00:41:09;9.95;;;5.20;;
11191;SDS011;5652;48.406;10.820;2024-02-21T00:43:37;10.30;;;5.18;;
11191;SDS011;5652;48.406;10.820;2024-02-21T00:46:05;12.02;;;5.07;;
11191;SDS011;5652;48.406;10.820;2024-02-21T00:48:34;8.75;;;4.95;;
11191;SDS011;5652;48.406;10.820;2024-02-21T00:51:01;9.55;;;5.22;;
11191;SDS011;5652;48.406;10.820;2024-02-21T00:53:28;9.83;;;5.13;;
11191;SDS011;5652;48.406;10.820;2024-02-21T00:55:55;11.38;;;5.60;;
11191;SDS011;5652;48.406;10.820;2024-02-21T00:58:22;9.10;;;4.75;;
11191;SDS011;5652;48.406;10.820;2024-02-21T01:00:50;8.18;;;4.65;;
11191;SDS011;5652;48.406;10.820;2024-02-21T01:03:17;7.85;;;4.55;;
11191;SDS011;5652;48.406;10.820;2024-02-21T01:05:45;10.77;;;4.93;;
11191;SDS011;5652;48.406;10.820;2024-02-21T01:08:12;9.52;;;4.55;;
11191;SDS011;5652;48.406;10.820;2024-02-21T01:10:40;7.63;;;4.40;;
11191;SDS011;5652;48.406;10.820;2024-02-21T01:13:07;10.82;;;5.05;;
11191;SDS011;5652;48.406;10.820;2024-02-21T01:15:34;11.95;;;5.30;;
11191;SDS011;5652;48.406;10.820;2024-02-21T01:18:01;10.77;;;5.03;;
11191;SDS011;5652;48.406;10.820;2024-02-21T01:20:30;9.75;;;4.68;;
11191;SDS011;5652;48.406;10.820;2024-02-21T01:22:58;11.52;;;4.90;;
11191;SDS011;5652;48.406;10.820;2024-02-21T01:25:25;8.65;;;4.60;;
11191;SDS011;5652;48.406;10.820;2024-02-21T01:27:52;9.98;;;4.72;;
11191;SDS011;5652;48.406;10.820;2024-02-21T01:30:20;7.75;;;4.80;;
11191;SDS011;5652;48.406;10.820;2024-02-21T01:32:47;10.35;;;4.97;;
11191;SDS011;5652;48.406;10.820;2024-02-21T01:35:14;9.13;;;4.38;;
11191;SDS011;5652;48.406;10.820;2024-02-21T01:37:41;9.80;;;4.60;;
11191;SDS011;5652;48.406;10.820;2024-02-21T01:40:10;7.50;;;4.32;;
11191;SDS011;5652;48.406;10.820;2024-02-21T01:42:38;9.55;;;4.72;;
11191;SDS011;5652;48.406;10.820;2024-02-21T01:45:06;12.20;;;5.13;;
11191;SDS011;5652;48.406;10.820;2024-02-21T01:47:33;8.80;;;4.47;;
11191;SDS011;5652;48.406;10.820;2024-02-21T01:50:01;8.75;;;4.50;;
11191;SDS011;5652;48.406;10.820;2024-02-21T01:52:28;8.43;;;4.47;;
11191;SDS011;5652;48.406;10.820;2024-02-21T01:54:56;9.25;;;4.22;;
11191;SDS011;5652;48.406;10.820;2024-02-21T01:57:25;9.37;;;4.97;;
11191;SDS011;5652;48.406;10.820;2024-02-21T01:59:53;8.18;;;4.38;;
11191;SDS011;5652;48.406;10.820;2024-02-21T02:02:21;7.28;;;4.28;;
11191;SDS011;5652;48.406;10.820;2024-02-21T02:04:48;8.70;;;4.35;;
11191;SDS011;5652;48.406;10.820;2024-02-21T02:07:15;9.95;;;4.75;;
11191;SDS011;5652;48.406;10.820;2024-02-21T02:09:42;6.78;;;4.35;;
11191;SDS011;5652;48.406;10.820;2024-02-21T02:12:10;8.73;;;4.35;;
11191;SDS011;5652;48.406;10.820;2024-02-21T02:14:38;7.97;;;4.22;;
11191;SDS011;5652;48.406;10.820;2024-02-21T02:17:05;6.63;;;4.15;;
11191;SDS011;5652;48.406;10.820;2024-02-21T02:19:34;11.23;;;4.63;;
11191;SDS011;5652;48.406;10.820;2024-02-21T02:22:03;8.77;;;4.22;;
11191;SDS011;5652;48.406;10.820;2024-02-21T02:24:34;9.27;;;4.18;;
11191;SDS011;5652;48.406;10.820;2024-02-21T02:27:01;9.75;;;4.75;;
11191;SDS011;5652;48.406;10.820;2024-02-21T02:29:28;7.95;;;4.10;;
11191;SDS011;5652;48.406;10.820;2024-02-21T02:31:57;9.20;;;4.10;;
11191;SDS011;5652;48.406;10.820;2024-02-21T02:34:24;9.43;;;4.40;;
11191;SDS011;5652;48.406;10.820;2024-02-21T02:36:51;7.70;;;4.07;;
11191;SDS011;5652;48.406;10.820;2024-02-21T02:39:19;7.40;;;4.10;;
11191;SDS011;5652;48.406;10.820;2024-02-21T02:41:48;10.13;;;4.40;;
11191;SDS011;5652;48.406;10.820;2024-02-21T02:44:15;8.57;;;4.30;;
11191;SDS011;5652;48.406;10.820;2024-02-21T02:46:42;10.45;;;4.72;;
11191;SDS011;5652;48.406;10.820;2024-02-21T02:49:09;9.90;;;4.43;;
11191;SDS011;5652;48.406;10.820;2024-02-21T02:51:36;9.98;;;4.32;;
11191;SDS011;5652;48.406;10.820;2024-02-21T02:54:03;10.23;;;4.50;;
11191;SDS011;5652;48.406;10.820;2024-02-21T02:56:30;10.90;;;4.53;;
11191;SDS011;5652;48.406;10.820;2024-02-21T02:58:59;8.07;;;4.68;;
11191;SDS011;5652;48.406;10.820;2024-02-21T03:01:26;7.00;;;4.10;;
11191;SDS011;5652;48.406;10.820;2024-02-21T03:03:53;8.05;;;4.20;;
11191;SDS011;5652;48.406;10.820;2024-02-21T03:06:20;12.00;;;4.30;;
11191;SDS011;5652;48.406;10.820;2024-02-21T03:08:48;8.73;;;4.20;;
11191;SDS011;5652;48.406;10.820;2024-02-21T03:11:20;7.43;;;4.10;;
11191;SDS011;5652;48.406;10.820;2024-02-21T03:13:54;9.68;;;4.20;;
11191;SDS011;5652;48.406;10.820;2024-02-21T03:16:23;9.80;;;4.30;;
11191;SDS011;5652;48.406;10.820;2024-02-21T03:18:50;9.27;;;4.50;;
11191;SDS011;5652;48.406;10.820;2024-02-21T03:21:17;9.57;;;4.05;;
11191;SDS011;5652;48.406;10.820;2024-02-21T03:23:44;8.07;;;4.20;;
11191;SDS011;5652;48.406;10.820;2024-02-21T03:26:12;6.90;;;4.13;;
11191;SDS011;5652;48.406;10.820;2024-02-21T03:28:42;7.18;;;4.20;;
11191;SDS011;5652;48.406;10.820;2024-02-21T03:31:10;7.95;;;3.70;;
11191;SDS011;5652;48.406;10.820;2024-02-21T03:33:40;8.48;;;4.45;;
11191;SDS011;5652;48.406;10.820;2024-02-21T03:36:12;7.97;;;3.97;;
11191;SDS011;5652;48.406;10.820;2024-02-21T03:38:39;6.90;;;4.25;;
11191;SDS011;5652;48.406;10.820;2024-02-21T03:41:06;6.65;;;3.75;;
11191;SDS011;5652;48.406;10.820;2024-02-21T03:43:33;9.05;;;3.83;;
11191;SDS011;5652;48.406;10.820;2024-02-21T03:46:01;7.35;;;3.83;;
11191;SDS011;5652;48.406;10.820;2024-02-21T03:48:28;7.03;;;3.85;;
11191;SDS011;5652;48.406;10.820;2024-02-21T03:50:56;6.85;;;3.58;;
11191;SDS011;5652;48.406;10.820;2024-02-21T03:53:24;7.53;;;3.57;;
11191;SDS011;5652;48.406;10.820;2024-02-21T03:55:51;8.05;;;3.72;;
11191;SDS011;5652;48.406;10.820;2024-02-21T03:58:18;7.07;;;4.13;;
11191;SDS011;5652;48.406;10.820;2024-02-21T04:00:45;6.80;;;3.88;;
11191;SDS011;5652;48.406;10.820;2024-02-21T04:03:12;7.85;;;3.47;;
11191;SDS011;5652;48.406;10.820;2024-02-21T04:05:40;6.75;;;3.55;;
11191;SDS011;5652;48.406;10.820;2024-02-21T04:08:08;7.15;;;3.58;;
11191;SDS011;5652;48.406;10.820;2024-02-21T04:10:35;5.15;;;3.42;;
11191;SDS011;5652;48.406;10.820;2024-02-21T04:13:03;8.73;;;3.78;;
11191;SDS011;5652;48.406;10.820;2024-02-21T04:15:30;8.60;;;3.73;;
11191;SDS011;5652;48.406;10.820;2024-02-21T04:17:57;6.40;;;3.85;;
11191;SDS011;5652;48.406;10.820;2024-02-21T04:20:24;5.97;;;3.38;;
11191;SDS011;5652;48.406;10.820;2024-02-21T04:22:52;6.55;;;3.45;;
11191;SDS011;5652;48.406;10.820;2024-02-21T04:25:20;6.80;;;3.67;;
11191;SDS011;5652;48.406;10.820;2024-02-21T04:27:48;6.97;;;3.70;;
11191;SDS011;5652;48.406;10.820;2024-02-21T04:30:15;8.95;;;3.75;;
11191;SDS011;5652;48.406;10.820;2024-02-21T04:32:42;7.10;;;3.78;;
11191;SDS011;5652;48.406;10.820;2024-02-21T04:35:09;5.80;;;3.67;;
11191;SDS011;5652;48.406;10.820;2024-02-21T04:37:36;7.13;;;3.78;;
11191;SDS011;5652;48.406;10.820;2024-02-21T04:40:04;6.78;;;3.55;;
11191;SDS011;5652;48.406;10.820;2024-02-21T04:42:32;5.90;;;3.67;;
11191;SDS011;5652;48.406;10.820;2024-02-21T04:44:59;7.07;;;3.70;;
11191;SDS011;5652;48.406;10.820;2024-02-21T04:47:27;6.57;;;3.40;;
11191;SDS011;5652;48.406;10.820;2024-02-21T04:49:54;7.13;;;3.43;;
11191;SDS011;5652;48.406;10.820;2024-02-21T04:52:21;7.93;;;3.50;;
11191;SDS011;5652;48.406;10.820;2024-02-21T04:54:48;5.80;;;3.50;;
11191;SDS011;5652;48.406;10.820;2024-02-21T04:57:16;7.65;;;3.45;;
11191;SDS011;5652;48.406;10.820;2024-02-21T04:59:45;5.93;;;3.38;;
11191;SDS011;5652;48.406;10.820;2024-02-21T05:02:12;7.13;;;3.40;;
11191;SDS011;5652;48.406;10.820;2024-02-21T05:04:39;5.40;;;3.57;;
11191;SDS011;5652;48.406;10.820;2024-02-21T05:07:07;6.35;;;3.50;;
11191;SDS011;5652;48.406;10.820;2024-02-21T05:09:36;6.57;;;3.60;;
11191;SDS011;5652;48.406;10.820;2024-02-21T05:12:03;5.32;;;3.25;;
11191;SDS011;5652;48.406;10.820;2024-02-21T05:14:30;6.95;;;3.50;;
11191;SDS011;5652;48.406;10.820;2024-02-21T05:16:59;5.67;;;3.50;;
11191;SDS011;5652;48.406;10.820;2024-02-21T05:19:26;6.03;;;3.30;;
11191;SDS011;5652;48.406;10.820;2024-02-21T05:21:53;6.40;;;2.95;;
11191;SDS011;5652;48.406;10.820;2024-02-21T05:24:20;5.80;;;3.10;;
11191;SDS011;5652;48.406;10.820;2024-02-21T05:26:47;4.38;;;3.03;;
11191;SDS011;5652;48.406;10.820;2024-02-21T05:29:14;5.95;;;3.10;;
11191;SDS011;5652;48.406;10.820;2024-02-21T05:31:58;5.68;;;3.20;;
11191;SDS011;5652;48.406;10.820;2024-02-21T05:34:25;4.85;;;2.85;;
11191;SDS011;5652;48.406;10.820;2024-02-21T05:36:52;5.13;;;2.70;;
11191;SDS011;5652;48.406;10.820;2024-02-21T05:39:19;5.93;;;2.90;;
11191;SDS011;5652;48.406;10.820;2024-02-21T05:41:48;5.60;;;2.90;;
11191;SDS011;5652;48.406;10.820;2024-02-21T05:44:15;4.75;;;2.75;;
11191;SDS011;5652;48.406;10.820;2024-02-21T05:46:42;5.53;;;2.97;;
11191;SDS011;5652;48.406;10.820;2024-02-21T05:49:11;4.13;;;2.53;;
11191;SDS011;5652;48.406;10.820;2024-02-21T05:51:39;4.87;;;2.80;;
11191;SDS011;5652;48.406;10.820;2024-02-21T05:54:06;6.20;;;2.88;;
11191;SDS011;5652;48.406;10.820;2024-02-21T05:56:33;4.32;;;2.65;;
11191;SDS011;5652;48.406;10.820;2024-02-21T05:59:00;4.82;;;2.70;;
11191;SDS011;5652;48.406;10.820;2024-02-21T06:01:28;5.25;;;2.80;;
11191;SDS011;5652;48.406;10.820;2024-02-21T06:03:55;5.30;;;2.60;;
11191;SDS011;5652;48.406;10.820;2024-02-21T06:06:23;5.13;;;2.88;;
11191;SDS011;5652;48.406;10.820;2024-02-21T06:08:50;5.47;;;3.03;;
11191;SDS011;5652;48.406;10.820;2024-02-21T06:11:17;6.00;;;2.92;;
11191;SDS011;5652;48.406;10.820;2024-02-21T06:13:44;5.15;;;2.70;;
11191;SDS011;5652;48.406;10.820;2024-02-21T06:16:12;4.93;;;2.67;;
11191;SDS011;5652;48.406;10.820;2024-02-21T06:18:39;5.28;;;2.70;;
11191;SDS011;5652;48.406;10.820;2024-02-21T06:21:06;4.82;;;2.60;;
11191;SDS011;5652;48.406;10.820;2024-02-21T06:23:36;5.43;;;2.58;;
11191;SDS011;5652;48.406;10.820;2024-02-21T06:26:03;4.80;;;2.53;;
11191;SDS011;5652;48.406;10.820;2024-02-21T06:28:30;5.60;;;2.50;;
11191;SDS011;5652;48.406;10.820;2024-02-21T06:30:58;4.85;;;2.47;;
11191;SDS011;5652;48.406;10.820;2024-02-21T06:33:25;5.43;;;2.35;;
11191;SDS011;5652;48.406;10.820;2024-02-21T06:35:52;3.50;;;2.20;;
11191;SDS011;5652;48.406;10.820;2024-02-21T06:38:19;3.58;;;2.17;;
11191;SDS011;5652;48.406;10.820;2024-02-21T06:40:48;4.20;;;2.50;;
11191;SDS011;5652;48.406;10.820;2024-02-21T06:43:17;4.35;;;2.10;;
11191;SDS011;5652;48.406;10.820;2024-02-21T06:45:45;3.90;;;2.38;;
11191;SDS011;5652;48.406;10.820;2024-02-21T06:48:15;4.83;;;2.43;;
11191;SDS011;5652;48.406;10.820;2024-02-21T06:50:42;4.20;;;2.08;;
11191;SDS011;5652;48.406;10.820;2024-02-21T06:53:09;4.72;;;2.40;;
11191;SDS011;5652;48.406;10.820;2024-02-21T06:55:37;3.15;;;2.10;;
11191;SDS011;5652;48.406;10.820;2024-02-21T06:58:05;4.03;;;2.20;;
11191;SDS011;5652;48.406;10.820;2024-02-21T07:00:36;4.82;;;2.20;;
11191;SDS011;5652;48.406;10.820;2024-02-21T07:03:03;3.50;;;2.00;;
11191;SDS011;5652;48.406;10.820;2024-02-21T07:05:31;4.60;;;2.22;;
11191;SDS011;5652;48.406;10.820;2024-02-21T07:07:58;3.25;;;2.03;;
11191;SDS011;5652;48.406;10.820;2024-02-21T07:10:25;5.13;;;2.27;;
11191;SDS011;5652;48.406;10.820;2024-02-21T07:12:55;3.83;;;1.73;;
11191;SDS011;5652;48.406;10.820;2024-02-21T07:15:23;4.40;;;2.03;;
11191;SDS011;5652;48.406;10.820;2024-02-21T07:17:53;3.20;;;2.10;;
11191;SDS011;5652;48.406;10.820;2024-02-21T07:20:20;3.63;;;1.90;;
11191;SDS011;5652;48.406;10.820;2024-02-21T07:22:48;3.17;;;2.00;;
11191;SDS011;5652;48.406;10.820;2024-02-21T07:25:15;5.47;;;1.97;;
11191;SDS011;5652;48.406;10.820;2024-02-21T07:27:42;3.90;;;1.85;;
11191;SDS011;5652;48.406;10.820;2024-02-21T07:30:09;3.38;;;2.03;;
11191;SDS011;5652;48.406;10.820;2024-02-21T07:32:38;3.90;;;1.95;;
11191;SDS011;5652;48.406;10.820;2024-02-21T07:35:05;3.33;;;2.00;;
11191;SDS011;5652;48.406;10.820;2024-02-21T07:37:35;3.53;;;2.08;;
11191;SDS011;5652;48.406;10.820;2024-02-21T07:40:04;4.25;;;2.05;;
11191;SDS011;5652;48.406;10.820;2024-02-21T07:42:31;2.88;;;2.05;;
11191;SDS011;5652;48.406;10.820;2024-02-21T07:44:58;5.17;;;2.00;;
11191;SDS011;5652;48.406;10.820;2024-02-21T07:47:25;4.30;;;2.00;;
11191;SDS011;5652;48.406;10.820;2024-02-21T07:49:54;3.93;;;2.40;;
11191;SDS011;5652;48.406;10.820;2024-02-21T07:52:21;3.78;;;2.30;;
11191;SDS011;5652;48.406;10.820;2024-02-21T07:54:48;3.90;;;2.08;;
11191;SDS011;5652;48.406;10.820;2024-02-21T07:57:15;4.30;;;1.88;;
11191;SDS011;5652;48.406;10.820;2024-02-21T07:59:42;3.83;;;1.75;;
11191;SDS011;5652;48.406;10.820;2024-02-21T08:02:09;3.25;;;1.85;;
11191;SDS011;5652;48.406;10.820;2024-02-21T08:04:36;2.50;;;1.80;;
11191;SDS011;5652;48.406;10.820;2024-02-21T08:07:05;2.58;;;1.77;;
11191;SDS011;5652;48.406;10.820;2024-02-21T08:09:32;4.72;;;2.60;;
11191;SDS011;5652;48.406;10.820;2024-02-21T08:12:00;4.05;;;2.72;;
11191;SDS011;5652;48.406;10.820;2024-02-21T08:14:27;5.57;;;3.80;;
11191;SDS011;5652;48.406;10.820;2024-02-21T08:16:54;4.18;;;2.10;;
11191;SDS011;5652;48.406;10.820;2024-02-21T08:19:21;3.85;;;3.17;;
11191;SDS011;5652;48.406;10.820;2024-02-21T08:21:48;4.80;;;2.00;;
11191;SDS011;5652;48.406;10.820;2024-02-21T08:24:17;3.53;;;1.67;;
11191;SDS011;5652;48.406;10.820;2024-02-21T08:26:44;3.63;;;1.42;;
11191;SDS011;5652;48.406;10.820;2024-02-21T08:29:11;3.58;;;1.70;;
11191;SDS011;5652;48.406;10.820;2024-02-21T08:31:39;2.50;;;1.58;;
11191;SDS011;5652;48.406;10.820;2024-02-21T08:34:06;2.53;;;1.50;;
11191;SDS011;5652;48.406;10.820;2024-02-21T08:36:33;3.30;;;1.60;;
11191;SDS011;5652;48.406;10.820;2024-02-21T08:39:01;3.65;;;1.60;;
11191;SDS011;5652;48.406;10.820;2024-02-21T08:41:31;2.92;;;1.55;;
11191;SDS011;5652;48.406;10.820;2024-02-21T08:43:59;2.78;;;1.50;;
11191;SDS011;5652;48.406;10.820;2024-02-21T08:46:26;2.55;;;1.50;;
11191;SDS011;5652;48.406;10.820;2024-02-21T08:48:53;2.33;;;1.60;;
11191;SDS011;5652;48.406;10.820;2024-02-21T08:51:21;3.15;;;1.45;;
11191;SDS011;5652;48.406;10.820;2024-02-21T08:53:48;3.53;;;1.58;;
11191;SDS011;5652;48.406;10.820;2024-02-21T08:56:16;2.70;;;1.60;;
11191;SDS011;5652;48.406;10.820;2024-02-21T08:58:45;2.58;;;1.50;;
11191;SDS011;5652;48.406;10.820;2024-02-21T09:01:12;4.35;;;1.70;;
11191;SDS011;5652;48.406;10.820;2024-02-21T09:03:40;3.15;;;1.60;;
11191;SDS011;5652;48.406;10.820;2024-02-21T09:06:10;2.85;;;1.45;;
11191;SDS011;5652;48.406;10.820;2024-02-21T09:08:38;3.83;;;1.90;;
11191;SDS011;5652;48.406;10.820;2024-02-21T09:11:05;4.38;;;1.83;;
11191;SDS011;5652;48.406;10.820;2024-02-21T09:13:33;5.03;;;1.80;;
11191;SDS011;5652;48.406;10.820;2024-02-21T09:16:01;3.17;;;1.63;;
11191;SDS011;5652;48.406;10.820;2024-02-21T09:18:28;2.78;;;1.60;;
11191;SDS011;5652;48.406;10.820;2024-02-21T09:20:55;3.20;;;1.80;;
11191;SDS011;5652;48.406;10.820;2024-02-21T09:23:23;3.15;;;1.60;;
11191;SDS011;5652;48.406;10.820;2024-02-21T09:25:51;3.70;;;1.90;;
11191;SDS011;5652;48.406;10.820;2024-02-21T09:28:18;3.67;;;2.00;;
11191;SDS011;5652;48.406;10.820;2024-02-21T09:30:45;3.60;;;1.80;;
11191;SDS011;5652;48.406;10.820;2024-02-21T09:33:13;3.53;;;1.90;;
11191;SDS011;5652;48.406;10.820;2024-02-21T09:35:41;4.80;;;2.00;;
11191;SDS011;5652;48.406;10.820;2024-02-21T09:38:08;4.80;;;1.77;;
11191;SDS011;5652;48.406;10.820;2024-02-21T09:40:35;2.83;;;1.70;;
11191;SDS011;5652;48.406;10.820;2024-02-21T09:43:04;2.78;;;1.63;;
11191;SDS011;5652;48.406;10.820;2024-02-21T09:45:32;3.42;;;1.70;;
11191;SDS011;5652;48.406;10.820;2024-02-21T09:48:04;4.63;;;2.05;;
11191;SDS011;5652;48.406;10.820;2024-02-21T09:50:36;2.90;;;1.50;;
11191;SDS011;5652;48.406;10.820;2024-02-21T09:53:05;3.20;;;1.70;;
11191;SDS011;5652;48.406;10.820;2024-02-21T09:55:33;2.50;;;1.50;;
11191;SDS011;5652;48.406;10.820;2024-02-21T09:58:01;3.13;;;1.50;;
11191;SDS011;5652;48.406;10.820;2024-02-21T10:00:28;3.25;;;1.50;;
11191;SDS011;5652;48.406;10.820;2024-02-21T10:02:55;3.42;;;1.60;;
11191;SDS011;5652;48.406;10.820;2024-02-21T10:05:22;2.17;;;1.40;;
11191;SDS011;5652;48.406;10.820;2024-02-21T10:07:51;3.42;;;1.45;;
11191;SDS011;5652;48.406;10.820;2024-02-21T10:10:19;2.50;;;1.35;;
11191;SDS011;5652;48.406;10.820;2024-02-21T10:12:50;3.83;;;1.45;;
11191;SDS011;5652;48.406;10.820;2024-02-21T10:15:19;2.83;;;1.63;;
11191;SDS011;5652;48.406;10.820;2024-02-21T10:17:47;2.25;;;1.30;;
11191;SDS011;5652;48.406;10.820;2024-02-21T10:20:15;3.47;;;1.50;;
11191;SDS011;5652;48.406;10.820;2024-02-21T10:22:42;4.70;;;1.60;;
11191;SDS011;5652;48.406;10.820;2024-02-21T10:25:11;2.85;;;1.70;;
11191;SDS011;5652;48.406;10.820;2024-02-21T10:27:38;2.58;;;1.20;;
11191;SDS011;5652;48.406;10.820;2024-02-21T10:30:07;3.45;;;1.50;;
11191;SDS011;5652;48.406;10.820;2024-02-21T10:32:34;2.13;;;1.50;;
11191;SDS011;5652;48.406;10.820;2024-02-21T10:35:02;2.20;;;1.35;;
11191;SDS011;5652;48.406;10.820;2024-02-21T10:37:30;1.50;;;1.30;;
11191;SDS011;5652;48.406;10.820;2024-02-21T10:39:56;2.80;;;1.40;;
11191;SDS011;5652;48.406;10.820;2024-02-21T10:42:25;2.85;;;1.60;;
11191;SDS011;5652;48.406;10.820;2024-02-21T10:44:53;2.22;;;1.42;;
11191;SDS011;5652;48.406;10.820;2024-02-21T10:47:20;2.28;;;1.30;;
11191;SDS011;5652;48.406;10.820;2024-02-21T10:49:50;2.40;;;1.30;;
11191;SDS011;5652;48.406;10.820;2024-02-21T10:52:25;4.30;;;1.40;;
11191;SDS011;5652;48.406;10.820;2024-02-21T10:54:56;1.63;;;1.20;;
11191;SDS011;5652;48.406;10.820;2024-02-21T10:57:27;1.67;;;1.20;;
11191;SDS011;5652;48.406;10.820;2024-02-21T10:59:55;1.95;;;1.27;;
11191;SDS011;5652;48.406;10.820;2024-02-21T11:02:22;2.05;;;1.30;;
11191;SDS011;5652;48.406;10.820;2024-02-21T11:04:50;2.28;;;1.40;;
11191;SDS011;5652;48.406;10.820;2024-02-21T11:07:18;2.38;;;1.23;;
11191;SDS011;5652;48.406;10.820;2024-02-21T11:09:50;2.10;;;1.23;;
11191;SDS011;5652;48.406;10.820;2024-02-21T11:12:19;2.45;;;1.30;;
11191;SDS011;5652;48.406;10.820;2024-02-21T11:14:48;1.48;;;1.17;;
11191;SDS011;5652;48.406;10.820;2024-02-21T11:17:15;3.00;;;1.40;;
11191;SDS011;5652;48.406;10.820;2024-02-21T11:19:43;2.22;;;1.30;;
11191;SDS011;5652;48.406;10.820;2024-02-21T11:22:14;2.30;;;1.50;;
11191;SDS011;5652;48.406;10.820;2024-02-21T11:24:42;2.42;;;1.40;;
11191;SDS011;5652;48.406;10.820;2024-02-21T11:27:09;1.50;;;1.30;;
11191;SDS011;5652;48.406;10.820;2024-02-21T11:29:39;2.00;;;1.20;;
11191;SDS011;5652;48.406;10.820;2024-02-21T11:32:10;2.60;;;1.27;;
11191;SDS011;5652;48.406;10.820;2024-02-21T11:34:37;1.85;;;1.40;;
11191;SDS011;5652;48.406;10.820;2024-02-21T11:37:12;1.50;;;1.17;;
11191;SDS011;5652;48.406;10.820;2024-02-21T11:39:40;2.67;;;1.27;;
11191;SDS011;5652;48.406;10.820;2024-02-21T11:42:08;2.40;;;1.20;;
11191;SDS011;5652;48.406;10.820;2024-02-21T11:44:36;2.20;;;1.20;;
11191;SDS011;5652;48.406;10.820;2024-02-21T11:47:04;2.45;;;1.48;;
11191;SDS011;5652;48.406;10.820;2024-02-21T11:49:35;2.40;;;1.27;;
11191;SDS011;5652;48.406;10.820;2024-02-21T11:52:03;2.38;;;1.50;;
11191;SDS011;5652;48.406;10.820;2024-02-21T11:54:30;2.80;;;1.60;;
11191;SDS011;5652;48.406;10.820;2024-02-21T11:56:57;4.70;;;1.53;;
11191;SDS011;5652;48.406;10.820;2024-02-21T11:59:24;2.65;;;1.35;;
11191;SDS011;5652;48.406;10.820;2024-02-21T12:01:52;2.28;;;1.63;;
11191;SDS011;5652;48.406;10.820;2024-02-21T12:04:20;2.55;;;1.60;;
11191;SDS011;5652;48.406;10.820;2024-02-21T12:06:50;2.50;;;1.50;;
11191;SDS011;5652;48.406;10.820;2024-02-21T12:09:19;2.25;;;1.40;;
11191;SDS011;5652;48.406;10.820;2024-02-21T12:11:56;2.78;;;1.60;;
11191;SDS011;5652;48.406;10.820;2024-02-21T12:14:24;2.63;;;1.93;;
11191;SDS011;5652;48.406;10.820;2024-02-21T12:16:51;2.10;;;1.30;;
11191;SDS011;5652;48.406;10.820;2024-02-21T12:19:18;2.20;;;1.50;;
11191;SDS011;5652;48.406;10.820;2024-02-21T12:21:47;2.92;;;2.00;;
11191;SDS011;5652;48.406;10.820;2024-02-21T12:24:20;2.60;;;1.58;;
11191;SDS011;5652;48.406;10.820;2024-02-21T12:26:48;2.15;;;1.50;;
11191;SDS011;5652;48.406;10.820;2024-02-21T12:29:15;1.90;;;1.33;;
11191;SDS011;5652;48.406;10.820;2024-02-21T12:31:42;3.20;;;2.08;;
11191;SDS011;5652;48.406;10.820;2024-02-21T12:34:09;3.70;;;2.30;;
11191;SDS011;5652;48.406;10.820;2024-02-21T12:36:40;3.45;;;1.70;;
11191;SDS011;5652;48.406;10.820;2024-02-21T12:39:07;1.75;;;1.25;;
11191;SDS011;5652;48.406;10.820;2024-02-21T12:41:36;2.10;;;1.40;;
11191;SDS011;5652;48.406;10.820;2024-02-21T12:44:03;2.00;;;1.20;;
11191;SDS011;5652;48.406;10.820;2024-02-21T12:46:32;3.35;;;1.42;;
11191;SDS011;5652;48.406;10.820;2024-02-21T12:48:59;1.73;;;1.20;;
11191;SDS011;5652;48.406;10.820;2024-02-21T12:51:26;1.85;;;1.10;;
11191;SDS011;5652;48.406;10.820;2024-02-21T12:53:53;1.55;;;1.20;;
11191;SDS011;5652;48.406;10.820;2024-02-21T12:56:20;2.17;;;1.08;;
11191;SDS011;5652;48.406;10.820;2024-02-21T12:58:49;2.20;;;1.30;;
11191;SDS011;5652;48.406;10.820;2024-02-21T13:01:16;2.42;;;1.50;;
11191;SDS011;5652;48.406;10.820;2024-02-21T13:03:43;1.67;;;1.27;;
11191;SDS011;5652;48.406;10.820;2024-02-21T13:06:11;1.55;;;1.10;;
11191;SDS011;5652;48.406;10.820;2024-02-21T13:08:38;1.42;;;1.30;;
11191;SDS011;5652;48.406;10.820;2024-02-21T13:11:06;2.30;;;1.30;;
11191;SDS011;5652;48.406;10.820;2024-02-21T13:13:33;2.60;;;1.20;;
11191;SDS011;5652;48.406;10.820;2024-02-21T13:16:02;1.60;;;1.17;;
11191;SDS011;5652;48.406;10.820;2024-02-21T13:18:29;2.13;;;1.17;;
11191;SDS011;5652;48.406;10.820;2024-02-21T13:20:57;2.20;;;1.20;;
11191;SDS011;5652;48.406;10.820;2024-02-21T13:23:24;1.75;;;1.05;;
11191;SDS011;5652;48.406;10.820;2024-02-21T13:25:51;1.92;;;1.10;;
11191;SDS011;5652;48.406;10.820;2024-02-21T13:28:19;2.00;;;1.10;;
11191;SDS011;5652;48.406;10.820;2024-02-21T13:30:46;2.07;;;1.30;;
11191;SDS011;5652;48.406;10.820;2024-02-21T13:33:14;1.92;;;1.10;;
11191;SDS011;5652;48.406;10.820;2024-02-21T13:35:41;1.88;;;1.40;;
11191;SDS011;5652;48.406;10.820;2024-02-21T13:38:08;1.20;;;1.00;;
11191;SDS011;5652;48.406;10.820;2024-02-21T13:40:36;2.65;;;1.00;;
11191;SDS011;5652;48.406;10.820;2024-02-21T13:43:03;1.65;;;1.10;;
11191;SDS011;5652;48.406;10.820;2024-02-21T13:45:30;1.70;;;1.10;;
11191;SDS011;5652;48.406;10.820;2024-02-21T13:47:58;1.77;;;1.00;;
11191;SDS011;5652;48.406;10.820;2024-02-21T13:50:29;1.25;;;1.05;;
11191;SDS011;5652;48.406;10.820;2024-02-21T13:52:56;1.90;;;1.20;;
11191;SDS011;5652;48.406;10.820;2024-02-21T13:55:23;1.50;;;1.10;;
11191;SDS011;5652;48.406;10.820;2024-02-21T13:57:51;1.40;;;1.10;;
11191;SDS011;5652;48.406;10.820;2024-02-21T14:00:18;2.42;;;1.20;;
11191;SDS011;5652;48.406;10.820;2024-02-21T14:02:45;1.65;;;1.20;;
11191;SDS011;5652;48.406;10.820;2024-02-21T14:05:12;1.50;;;1.23;;
11191;SDS011;5652;48.406;10.820;2024-02-21T14:07:41;1.40;;;1.00;;
11191;SDS011;5652;48.406;10.820;2024-02-21T14:10:08;1.25;;;1.15;;
11191;SDS011;5652;48.406;10.820;2024-02-21T14:12:35;1.55;;;1.20;;
11191;SDS011;5652;48.406;10.820;2024-02-21T14:15:03;1.30;;;1.10;;
11191;SDS011;5652;48.406;10.820;2024-02-21T14:17:31;1.83;;;0.98;;
11191;SDS011;5652;48.406;10.820;2024-02-21T14:19:58;1.23;;;1.10;;
11191;SDS011;5652;48.406;10.820;2024-02-21T14:22:25;2.97;;;1.27;;
11191;SDS011;5652;48.406;10.820;2024-02-21T14:24:54;1.90;;;1.17;;
11191;SDS011;5652;48.406;10.820;2024-02-21T14:27:21;1.63;;;1.23;;
11191;SDS011;5652;48.406;10.820;2024-02-21T14:29:48;1.55;;;1.15;;
11191;SDS011;5652;48.406;10.820;2024-02-21T14:32:15;1.25;;;1.10;;
11191;SDS011;5652;48.406;10.820;2024-02-21T14:34:42;1.77;;;1.20;;
11191;SDS011;5652;48.406;10.820;2024-02-21T14:37:09;1.35;;;1.00;;
11191;SDS011;5652;48.406;10.820;2024-02-21T14:39:37;1.33;;;1.13;;
11191;SDS011;5652;48.406;10.820;2024-02-21T14:42:06;1.37;;;1.20;;
11191;SDS011;5652;48.406;10.820;2024-02-21T14:44:34;1.67;;;1.10;;
11191;SDS011;5652;48.406;10.820;2024-02-21T14:47:01;1.85;;;1.25;;
11191;SDS011;5652;48.406;10.820;2024-02-21T14:49:29;1.70;;;1.35;;
11191;SDS011;5652;48.406;10.820;2024-02-21T14:51:56;2.00;;;1.10;;